Time;durP1;ratioP1;P1;durP2;ratioP2;P2;SDS_P1;SDS_P2;PMS_P1;PMS_P2;Temp;Humidity;BMP_temperature;BMP_pressure;BME280_temperature;BME280_humidity;BME280_pressure;Samples;Min_cycle;Max_cycle;Signal;HPM_P1;HPM_P2
2022/08/12 00:44:53;;;;;;;3.05;1.00;;;26.90;64.30;;;;;;5031743;28;20411;-73
2022/08/12 00:47:20;;;;;;;4.28;1.02;;;26.90;64.20;;;;;;5031174;28;20053;-73
2022/08/12 00:49:48;;;;;;;3.88;1.00;;;26.90;64.30;;;;;;5032423;28;20104;-73
2022/08/12 00:52:14;;;;;;;1.42;1.00;;;26.80;64.20;;;;;;5031524;28;20029;-74
2022/08/12 00:54:48;;;;;;;3.25;0.85;;;26.90;64.30;;;;;;5031343;28;20078;-74
2022/08/12 00:57:28;;;;;;;2.58;1.05;;;26.90;64.40;;;;;;5031427;28;20083;-74
2022/08/12 01:00:00;;;;;;;1.50;1.30;;;26.90;64.40;;;;;;5037307;28;20025;-74
2022/08/12 01:02:39;;;;;;;3.05;1.17;;;26.90;64.30;;;;;;5050893;28;20092;-74
2022/08/12 01:13:31;;;;;;;2.75;1.17;;;26.90;64.40;;;;;;5016088;28;20101;-74
2022/08/12 01:15:58;;;;;;;8.85;1.52;;;26.80;64.30;;;;;;5013564;28;20405;-74
2022/08/12 01:18:28;;;;;;;1.27;0.90;;;26.80;64.50;;;;;;5013653;28;20395;-74
2022/08/12 01:21:10;;;;;;;1.70;1.20;;;26.80;64.40;;;;;;5029986;28;20030;-73
2022/08/12 01:23:50;;;;;;;3.47;1.20;;;26.90;64.30;;;;;;5029935;28;20022;-74
2022/08/12 01:26:22;;;;;;;4.18;1.08;;;26.80;64.20;;;;;;5013887;28;20025;-74
2022/08/12 01:28:48;;;;;;;2.47;1.00;;;26.80;64.30;;;;;;5014232;28;20018;-74
2022/08/12 01:31:15;;;;;;;2.05;0.95;;;26.80;64.20;;;;;;4998977;28;20043;-74
2022/08/12 01:34:12;;;;;;;1.20;1.10;;;26.80;64.20;;;;;;4990633;28;20138;-74
2022/08/12 01:36:45;;;;;;;4.85;1.13;;;26.80;64.20;;;;;;4980418;28;20100;-74
2022/08/12 01:39:12;;;;;;;1.75;0.95;;;26.80;64.20;;;;;;5007788;28;20057;-74
2022/08/12 01:41:43;;;;;;;2.78;1.00;;;26.80;64.20;;;;;;4981953;28;20026;-74
2022/08/12 01:44:08;;;;;;;1.60;1.00;;;26.80;64.20;;;;;;5000170;28;20029;-74
2022/08/12 01:46:37;;;;;;;2.53;0.90;;;26.80;64.20;;;;;;5018111;28;20119;-74
2022/08/12 01:49:21;;;;;;;2.40;1.27;;;26.80;64.10;;;;;;5035645;28;20021;-74
2022/08/12 01:51:53;;;;;;;1.90;1.00;;;26.80;64.10;;;;;;5035707;28;20060;-74
2022/08/12 01:54:19;;;;;;;;;;;26.80;64.10;;;;;;5019255;28;20030;-74
2022/08/12 01:57:23;;;;;;;0.90;0.80;;;26.80;64.00;;;;;;5034598;28;19905;-73
2022/08/12 02:00:05;;;;;;;4.32;0.90;;;26.80;64.10;;;;;;5016292;28;20470;-74
2022/08/12 02:02:45;;;;;;;4.32;1.10;;;26.80;64.10;;;;;;5035525;28;20033;-74
2022/08/12 02:12:08;;;;;;;3.13;1.00;;;26.80;64.20;;;;;;5034549;28;20047;-74
2022/08/12 02:14:56;;;;;;;1.20;0.88;;;26.80;64.20;;;;;;5032418;28;20048;-74
2022/08/12 02:17:44;;;;;;;2.47;1.20;;;26.80;64.30;;;;;;5034104;28;20025;-74
2022/08/12 02:20:20;;;;;;;3.22;1.13;;;26.70;64.20;;;;;;5035361;28;20396;-74
2022/08/12 02:22:46;;;;;;;4.72;1.20;;;26.80;64.40;;;;;;5035225;28;20025;-74
2022/08/12 02:25:17;;;;;;;0.95;0.77;;;26.70;65.20;;;;;;5033760;28;20097;-74
2022/08/12 02:27:45;;;;;;;2.38;1.00;;;26.70;64.30;;;;;;5017593;28;20045;-73
2022/08/12 02:30:22;;;;;;;1.90;0.90;;;26.70;64.20;;;;;;5034769;28;20116;-73
2022/08/12 02:32:49;;;;;;;2.38;0.90;;;26.70;64.30;;;;;;5035161;28;20029;-73
2022/08/12 02:35:18;;;;;;;1.67;1.10;;;26.70;64.20;;;;;;5033603;28;20484;-73
2022/08/12 02:37:45;;;;;;;1.80;1.27;;;26.70;64.30;;;;;;5031929;28;20479;-74
2022/08/12 02:40:11;;;;;;;4.68;1.20;;;26.70;64.40;;;;;;5013887;28;20029;-74
2022/08/12 02:42:38;;;;;;;2.58;1.13;;;26.70;64.40;;;;;;5014827;28;20022;-74
2022/08/12 02:45:05;;;;;;;2.22;1.20;;;26.70;65.40;;;;;;5013842;28;20523;-74
2022/08/12 02:47:33;;;;;;;1.83;1.13;;;26.70;64.30;;;;;;5013719;28;20026;-73
2022/08/12 02:49:59;;;;;;;1.30;0.90;;;26.70;64.20;;;;;;5013764;28;20109;-73
2022/08/12 02:52:25;;;;;;;7.20;1.38;;;26.70;64.30;;;;;;5022449;28;20456;-73
2022/08/12 02:54:52;;;;;;;1.17;1.05;;;26.70;64.20;;;;;;5034738;28;20021;-74
2022/08/12 02:57:19;;;;;;;2.25;1.15;;;26.70;64.20;;;;;;5049538;28;20057;-73
2022/08/12 02:59:47;;;;;;;9.02;1.20;;;26.70;64.20;;;;;;5034562;28;20029;-74
2022/08/12 03:02:13;;;;;;;1.40;1.27;;;26.70;64.10;;;;;;5034243;28;20021;-74
2022/08/12 03:04:43;;;;;;;2.80;1.10;;;26.70;64.30;;;;;;5066480;28;20032;-74
2022/08/12 03:07:24;;;;;;;2.65;1.25;;;26.70;64.30;;;;;;5049502;28;20432;-74
2022/08/12 03:10:08;;;;;;;2.72;1.00;;;26.70;64.30;;;;;;5034416;28;20097;-74
2022/08/12 03:12:42;;;;;;;2.08;0.88;;;26.70;64.20;;;;;;5014484;28;20041;-74
2022/08/12 03:15:10;;;;;;;2.08;1.25;;;26.70;64.20;;;;;;5026116;28;20492;-74
2022/08/12 03:17:55;;;;;;;2.10;1.08;;;26.70;64.30;;;;;;5032882;28;20095;-74
2022/08/12 03:20:22;;;;;;;3.28;1.02;;;26.70;64.20;;;;;;5032889;28;20079;-74
2022/08/12 03:22:49;;;;;;;2.97;1.00;;;26.60;64.10;;;;;;5032870;28;20056;-74
2022/08/12 03:25:23;;;;;;;1.63;0.93;;;26.70;64.20;;;;;;5033644;28;20563;-74
2022/08/12 03:27:50;;;;;;;0.95;0.85;;;26.70;64.20;;;;;;5032718;28;20018;-74
2022/08/12 03:30:19;;;;;;;1.02;1.00;;;26.70;64.20;;;;;;5033702;28;20041;-74
2022/08/12 03:32:49;;;;;;;2.95;1.27;;;26.70;64.20;;;;;;5032902;28;20067;-74
2022/08/12 03:35:17;;;;;;;1.85;1.00;;;26.70;64.20;;;;;;5033745;28;20506;-74
2022/08/12 03:37:44;;;;;;;1.05;0.90;;;26.60;64.10;;;;;;5032527;28;20029;-74
2022/08/12 03:41:32;;;;;;;3.08;1.23;;;26.70;64.10;;;;;;5033591;28;20040;-74
2022/08/12 04:02:04;;;;;;;1.08;0.90;;;26.60;64.10;;;;;;5033238;28;20049;-74
2022/08/12 04:04:33;;;;;;;1.10;1.00;;;26.60;64.00;;;;;;5032127;28;20480;-74
2022/08/12 04:07:06;;;;;;;1.80;1.05;;;26.60;64.10;;;;;;5032089;28;20025;-74
2022/08/12 04:09:32;;;;;;;2.35;1.00;;;26.60;64.00;;;;;;5031867;28;20156;-74
2022/08/12 04:14:42;;;;;;;1.60;0.90;;;26.60;65.10;;;;;;5033311;28;20533;-74
2022/08/12 04:17:08;;;;;;;5.55;1.27;;;26.60;64.00;;;;;;5031870;28;20543;-74
2022/08/12 04:19:34;;;;;;;1.45;0.90;;;26.60;64.00;;;;;;5033086;28;20105;-74
2022/08/12 04:22:00;;;;;;;1.33;1.00;;;26.60;64.00;;;;;;5031883;28;20021;-74
2022/08/12 04:24:26;;;;;;;1.85;1.08;;;26.60;64.00;;;;;;5031450;28;20061;-74
2022/08/12 04:26:52;;;;;;;2.38;1.20;;;26.60;64.00;;;;;;5031868;28;20025;-74
2022/08/12 04:29:21;;;;;;;1.00;1.00;;;26.60;64.00;;;;;;5032521;28;20100;-73
2022/08/12 04:31:47;;;;;;;3.60;0.93;;;26.60;63.90;;;;;;5031579;28;20488;-74
2022/08/12 04:34:12;;;;;;;1.98;1.02;;;26.60;64.00;;;;;;5031671;28;20025;-74
2022/08/12 04:36:39;;;;;;;3.60;1.08;;;26.60;64.00;;;;;;5032648;28;20499;-74
2022/08/12 04:39:06;;;;;;;6.82;1.08;;;26.60;64.00;;;;;;5019796;28;20025;-74
2022/08/12 04:41:33;;;;;;;1.08;0.98;;;26.60;64.00;;;;;;5013058;28;20026;-74
2022/08/12 04:43:59;;;;;;;1.20;1.10;;;26.60;64.00;;;;;;5012956;28;20029;-74
2022/08/12 04:46:25;;;;;;;3.38;1.40;;;26.60;64.00;;;;;;5012842;28;20500;-74
2022/08/12 04:48:51;;;;;;;1.55;1.10;;;26.50;63.90;;;;;;5012915;28;20022;-74
2022/08/12 04:51:18;;;;;;;4.68;1.27;;;26.60;64.00;;;;;;5011542;28;20026;-74
2022/08/12 04:53:45;;;;;;;1.65;1.20;;;26.50;64.00;;;;;;5011567;28;20028;-74
2022/08/12 04:56:11;;;;;;;1.38;1.00;;;26.60;63.90;;;;;;5011568;28;20021;-74
2022/08/12 04:58:37;;;;;;;0.90;0.90;;;26.50;63.80;;;;;;5012681;28;20032;-75
2022/08/12 05:01:03;;;;;;;3.70;1.38;;;26.50;63.80;;;;;;5011637;28;20038;-74
2022/08/12 05:03:29;;;;;;;1.48;1.00;;;26.50;63.90;;;;;;5012594;28;20395;-74
2022/08/12 05:05:57;;;;;;;1.15;0.90;;;26.50;63.80;;;;;;5012626;28;20029;-74
2022/08/12 05:08:24;;;;;;;1.48;1.15;;;26.50;63.80;;;;;;5012476;28;20049;-74
2022/08/12 05:10:50;;;;;;;1.38;0.90;;;26.50;63.80;;;;;;5011950;28;20393;-74
2022/08/12 05:13:18;;;;;;;3.42;1.15;;;26.50;63.80;;;;;;5011319;28;20028;-74
2022/08/12 05:15:44;;;;;;;1.30;1.10;;;26.50;63.80;;;;;;5032920;28;20029;-74
2022/08/12 05:18:10;;;;;;;3.33;1.30;;;26.50;63.80;;;;;;5041075;28;20110;-73
2022/08/12 05:20:36;;;;;;;4.75;1.30;;;26.50;63.60;;;;;;5039181;28;20487;-74
2022/08/12 05:23:09;;;;;;;1.13;1.13;;;26.50;61.50;;;;;;5063926;28;20033;-74
2022/08/12 05:25:35;;;;;;;1.20;1.10;;;26.40;60.30;;;;;;5046493;28;20052;-73
2022/08/12 05:28:02;;;;;;;1.25;1.15;;;26.40;60.00;;;;;;5063719;28;20022;-73
2022/08/12 05:30:29;;;;;;;2.17;1.30;;;26.30;60.10;;;;;;5020792;28;20073;-73
2022/08/12 05:32:58;;;;;;;1.98;1.45;;;26.30;60.10;;;;;;5063899;28;20038;-73
2022/08/12 05:35:24;;;;;;;1.38;1.30;;;26.30;60.10;;;;;;5039761;28;20025;-73
2022/08/12 05:38:54;;;;;;;3.47;1.40;;;26.30;60.30;;;;;;5038341;28;20026;-73
2022/08/12 05:40:38;;;;;;;1.75;1.52;;;26.30;60.20;;;;;;5044807;28;20036;-74
2022/08/12 05:43:04;;;;;;;1.80;1.20;;;26.30;60.40;;;;;;5022443;28;20021;-73
2022/08/12 05:45:30;;;;;;;1.88;1.40;;;26.30;60.30;;;;;;5039829;28;20021;-73
2022/08/12 05:47:55;;;;;;;1.30;1.20;;;26.20;60.10;;;;;;5039819;28;20136;-73
2022/08/12 05:50:21;;;;;;;1.52;1.20;;;26.30;60.20;;;;;;5039583;28;20087;-74
2022/08/12 05:52:47;;;;;;;1.40;1.30;;;26.30;60.20;;;;;;5063510;28;20491;-73
2022/08/12 05:55:12;;;;;;;2.72;1.23;;;26.20;60.10;;;;;;5039314;28;20509;-73
2022/08/12 05:57:38;;;;;;;1.45;1.35;;;26.20;60.10;;;;;;5039117;28;20028;-73
2022/08/12 06:00:05;;;;;;;1.98;1.17;;;26.20;60.10;;;;;;5022423;28;20029;-73
2022/08/12 06:02:30;;;;;;;1.35;1.10;;;26.20;60.10;;;;;;5039790;28;20098;-73
2022/08/12 06:04:59;;;;;;;1.40;1.30;;;26.20;60.10;;;;;;5063704;28;20061;-74
2022/08/12 06:07:24;;;;;;;1.48;1.38;;;26.20;60.10;;;;;;5040264;28;20017;-73
2022/08/12 06:09:50;;;;;;;2.70;1.25;;;26.20;60.10;;;;;;5063688;28;20067;-73
2022/08/12 06:12:20;;;;;;;2.70;1.48;;;26.20;60.20;;;;;;5038572;28;20488;-73
2022/08/12 06:14:47;;;;;;;6.13;2.15;;;26.20;60.30;;;;;;5036807;28;20502;-73
2022/08/12 06:17:12;;;;;;;20.35;4.85;;;26.20;60.20;;;;;;5031166;28;20018;-73
2022/08/12 06:19:38;;;;;;;23.20;5.43;;;26.20;60.50;;;;;;5030223;28;20025;-73
2022/08/12 06:22:04;;;;;;;15.00;4.53;;;26.20;60.60;;;;;;5033430;28;20017;-73
2022/08/12 06:24:29;;;;;;;11.77;3.42;;;26.20;60.70;;;;;;5033952;28;20091;-72
2022/08/12 06:26:56;;;;;;;11.07;3.42;;;26.10;60.50;;;;;;5034437;28;20045;-73
2022/08/12 06:29:22;;;;;;;10.95;3.58;;;26.20;60.60;;;;;;5032188;28;20018;-73
2022/08/12 06:31:51;;;;;;;13.40;3.90;;;26.20;60.70;;;;;;5033458;28;20018;-73
2022/08/12 06:34:17;;;;;;;12.55;3.67;;;26.10;60.70;;;;;;5033068;28;20060;-73
2022/08/12 06:36:44;;;;;;;12.82;3.80;;;26.10;60.80;;;;;;5033959;28;20526;-73
2022/08/12 06:39:13;;;;;;;10.15;3.60;;;26.10;60.80;;;;;;5033852;28;20021;-73
2022/08/12 06:44:23;;;;;;;9.15;3.40;;;26.10;60.80;;;;;;5034766;28;20087;-73
2022/08/12 06:46:48;;;;;;;9.88;3.10;;;26.10;61.80;;;;;;5033590;28;20021;-73
2022/08/12 06:49:14;;;;;;;9.88;3.63;;;26.10;60.90;;;;;;5034456;28;20057;-73
2022/08/12 06:51:40;;;;;;;10.35;3.72;;;26.10;60.80;;;;;;5034527;28;20029;-73
2022/08/12 06:54:06;;;;;;;10.13;3.58;;;26.10;60.90;;;;;;5034720;28;20468;-73
2022/08/12 06:56:31;;;;;;;8.38;3.47;;;26.10;60.90;;;;;;5034644;28;20025;-73
2022/08/12 06:58:57;;;;;;;12.57;3.67;;;26.10;61.00;;;;;;5033457;28;20450;-73
2022/08/12 07:01:26;;;;;;;8.45;3.45;;;26.10;60.90;;;;;;5034494;28;20026;-73
2022/08/12 07:03:52;;;;;;;8.38;3.38;;;26.10;60.90;;;;;;5034076;28;20056;-73
2022/08/12 07:06:17;;;;;;;9.23;3.05;;;26.10;60.90;;;;;;5034396;28;20060;-73
2022/08/12 07:08:43;;;;;;;9.18;3.45;;;26.00;60.90;;;;;;5033151;28;20040;-73
2022/08/12 07:11:10;;;;;;;6.85;3.28;;;26.00;60.90;;;;;;5034423;28;20022;-73
2022/08/12 07:13:42;;;;;;;6.75;3.30;;;26.00;60.90;;;;;;5032980;28;20088;-73
2022/08/12 07:16:18;;;;;;;5.53;3.07;;;26.00;61.00;;;;;;5017046;28;20025;-73
2022/08/12 07:18:44;;;;;;;6.93;2.90;;;26.00;61.00;;;;;;5033858;28;20252;-73
2022/08/12 07:21:11;;;;;;;8.15;3.83;;;26.00;60.90;;;;;;5032989;28;20036;-73
2022/08/12 07:23:37;;;;;;;7.22;3.50;;;26.00;60.90;;;;;;5034048;28;20021;-73
2022/08/12 07:26:05;;;;;;;7.63;3.47;;;26.00;60.90;;;;;;5016373;28;20416;-73
2022/08/12 07:28:33;;;;;;;9.07;3.58;;;26.00;60.80;;;;;;5032607;28;20013;-73
2022/08/12 07:30:59;;;;;;;7.38;3.50;;;26.00;60.90;;;;;;5032327;28;20136;-73
2022/08/12 07:33:30;;;;;;;7.43;3.00;;;26.00;60.90;;;;;;5032030;28;20543;-73
2022/08/12 07:35:58;;;;;;;8.10;3.65;;;26.00;61.20;;;;;;5032526;28;20026;-73
2022/08/12 07:38:29;;;;;;;7.22;3.40;;;26.00;60.90;;;;;;5020478;28;20501;-73
2022/08/12 07:40:55;;;;;;;6.65;3.22;;;26.00;60.90;;;;;;5014069;28;20045;-73
2022/08/12 07:43:21;;;;;;;9.07;2.97;;;26.00;60.90;;;;;;5013811;28;20030;-73
2022/08/12 07:45:48;;;;;;;15.90;3.90;;;26.00;60.90;;;;;;5012399;28;20029;-73
2022/08/12 07:48:14;;;;;;;8.13;3.42;;;26.00;60.80;;;;;;5012675;28;20045;-73
2022/08/12 07:50:40;;;;;;;6.43;3.63;;;26.00;60.80;;;;;;5013684;28;20053;-73
2022/08/12 07:53:05;;;;;;;6.38;3.28;;;26.00;60.80;;;;;;5012641;28;20100;-73
2022/08/12 07:55:31;;;;;;;7.63;2.88;;;26.00;60.90;;;;;;5013592;28;20033;-73
2022/08/12 07:57:58;;;;;;;6.38;3.30;;;26.00;60.90;;;;;;5012538;28;20475;-73
2022/08/12 08:00:30;;;;;;;6.20;3.05;;;26.00;60.80;;;;;;5013457;28;20108;-73
2022/08/12 08:02:57;;;;;;;6.25;3.30;;;26.00;60.80;;;;;;5013410;28;20086;-73
2022/08/12 08:05:24;;;;;;;7.45;3.40;;;26.00;60.80;;;;;;5012441;28;20034;-72
2022/08/12 08:07:52;;;;;;;6.18;3.65;;;26.00;60.90;;;;;;5012274;28;20025;-73
2022/08/12 08:10:19;;;;;;;8.05;3.28;;;25.90;60.80;;;;;;5013796;28;20025;-73
2022/08/12 08:12:54;;;;;;;5.43;3.17;;;25.90;60.80;;;;;;5012205;28;20026;-73
2022/08/12 08:15:29;;;;;;;8.45;3.22;;;26.00;60.80;;;;;;5012074;28;20084;-73
2022/08/12 08:18:05;;;;;;;7.78;3.08;;;26.00;60.90;;;;;;5013428;28;20022;-72
2022/08/12 08:20:33;;;;;;;6.80;3.50;;;25.90;60.90;;;;;;5012037;28;20026;-73
2022/08/12 08:23:04;;;;;;;6.88;3.30;;;25.90;60.80;;;;;;5012074;28;20026;-73
2022/08/12 08:25:30;;;;;;;5.07;3.28;;;26.00;60.90;;;;;;5013170;28;20536;-73
2022/08/12 08:28:04;;;;;;;7.18;3.33;;;25.90;60.80;;;;;;5011860;28;20057;-73
2022/08/12 08:30:30;;;;;;;5.95;3.25;;;26.00;60.90;;;;;;5024687;28;20079;-73
2022/08/12 08:32:56;;;;;;;6.15;3.17;;;25.90;60.80;;;;;;5031718;28;20022;-73
2022/08/12 08:35:23;;;;;;;6.75;3.10;;;25.90;60.80;;;;;;5031568;28;20048;-73
2022/08/12 08:37:50;;;;;;;6.50;3.13;;;25.90;60.80;;;;;;5024159;28;20451;-73
2022/08/12 08:43:00;;;;;;;6.47;2.83;;;25.90;60.90;;;;;;5012977;28;20025;-73
2022/08/12 08:45:27;;;;;;;5.72;3.10;;;25.90;60.90;;;;;;5011665;28;20030;-73
2022/08/12 08:47:53;;;;;;;5.82;3.30;;;25.90;60.90;;;;;;5012855;28;20105;-73
2022/08/12 08:50:19;;;;;;;5.43;3.30;;;25.90;60.90;;;;;;5011665;28;20033;-73
2022/08/12 08:52:45;;;;;;;7.28;3.10;;;25.90;60.90;;;;;;5011501;28;20030;-73
2022/08/12 08:55:14;;;;;;;5.30;2.95;;;25.90;60.90;;;;;;5011620;28;20025;-73
2022/08/12 08:57:42;;;;;;;8.52;2.88;;;25.90;60.90;;;;;;5011554;28;20106;-72
2022/08/12 09:00:12;;;;;;;7.03;3.35;;;25.90;60.90;;;;;;5011231;28;20049;-73
2022/08/12 09:02:37;;;;;;;6.38;3.00;;;25.90;60.90;;;;;;5012511;28;20053;-73
2022/08/12 09:05:03;;;;;;;5.60;3.10;;;25.90;60.90;;;;;;5012791;28;20457;-73
2022/08/12 09:07:29;;;;;;;5.78;3.20;;;25.90;61.00;;;;;;5012798;28;20018;-73
2022/08/12 09:09:56;;;;;;;5.65;2.95;;;25.90;60.90;;;;;;5012507;28;20030;-73
2022/08/12 09:15:07;;;;;;;6.85;3.25;;;25.90;61.00;;;;;;5012387;28;20033;-73
2022/08/12 09:17:33;;;;;;;4.20;2.95;;;25.90;60.90;;;;;;5012672;28;20077;-73
2022/08/12 09:19:59;;;;;;;6.10;3.00;;;25.90;61.00;;;;;;5011432;28;20037;-73
2022/08/12 09:22:24;;;;;;;5.88;3.05;;;25.90;60.90;;;;;;5012378;28;20026;-73
2022/08/12 09:24:51;;;;;;;6.18;2.92;;;25.90;61.00;;;;;;5012447;28;20026;-73
2022/08/12 09:27:17;;;;;;;6.15;2.97;;;25.90;60.90;;;;;;5012181;28;20025;-73
2022/08/12 09:29:44;;;;;;;5.25;2.78;;;25.90;60.90;;;;;;5017711;28;20124;-73
2022/08/12 09:32:10;;;;;;;7.15;3.00;;;25.90;61.00;;;;;;5031089;28;20018;-73
2022/08/12 09:34:36;;;;;;;5.95;2.97;;;25.90;60.90;;;;;;5030925;28;20024;-73
2022/08/12 09:37:02;;;;;;;6.40;3.15;;;25.90;60.90;;;;;;5030924;28;20043;-73
2022/08/12 09:39:31;;;;;;;6.10;2.90;;;25.90;60.90;;;;;;5012525;28;20026;-73
2022/08/12 09:47:27;;;;;;;6.40;2.92;;;25.90;60.90;;;;;;5012247;28;20033;-73
2022/08/12 09:49:54;;;;;;;4.65;3.10;;;25.90;60.90;;;;;;5011942;28;20026;-73
2022/08/12 09:52:21;;;;;;;5.55;2.97;;;25.90;60.90;;;;;;5011125;28;20026;-73
2022/08/12 09:54:46;;;;;;;6.57;3.58;;;25.90;60.90;;;;;;5012194;28;20022;-73
2022/08/12 09:57:21;;;;;;;5.32;2.83;;;25.90;60.90;;;;;;5014677;28;20033;-73
2022/08/12 09:59:47;;;;;;;5.05;3.17;;;25.90;60.90;;;;;;5015834;28;20026;-73
2022/08/12 10:02:13;;;;;;;6.25;2.83;;;25.90;60.90;;;;;;5015891;28;20049;-73
2022/08/12 10:04:42;;;;;;;6.15;2.92;;;25.90;60.90;;;;;;5014796;28;20050;-73
2022/08/12 10:07:08;;;;;;;4.70;2.65;;;25.90;60.90;;;;;;5015775;28;20121;-73
2022/08/12 10:09:33;;;;;;;3.80;2.63;;;25.90;60.90;;;;;;5015776;28;20102;-73
2022/08/12 10:14:43;;;;;;;5.38;2.58;;;25.90;60.80;;;;;;5014543;28;20127;-73
2022/08/12 10:17:09;;;;;;;3.53;2.63;;;25.90;60.80;;;;;;5015622;28;20026;-73
2022/08/12 10:19:36;;;;;;;4.43;2.58;;;25.90;60.80;;;;;;5015711;28;20032;-73
2022/08/12 10:22:04;;;;;;;4.47;2.80;;;25.90;60.90;;;;;;5014305;28;21391;-73
2022/08/12 10:24:30;;;;;;;5.78;2.95;;;25.90;60.90;;;;;;5015362;28;20022;-73
2022/08/12 10:29:46;;;;;;;4.25;2.40;;;25.90;60.80;;;;;;5021793;28;20129;-73
2022/08/12 10:32:19;;;;;;;3.60;2.60;;;25.90;60.80;;;;;;5035121;28;20022;-73
2022/08/12 10:34:49;;;;;;;4.90;2.70;;;25.90;60.80;;;;;;5034061;28;20060;-73
2022/08/12 10:37:14;;;;;;;3.85;2.70;;;25.90;60.80;;;;;;5031222;28;20057;-73
2022/08/12 10:39:40;;;;;;;3.28;2.67;;;25.90;60.80;;;;;;5013895;28;20056;-73
2022/08/12 10:45:05;;;;;;;4.35;2.58;;;25.90;60.80;;;;;;5013961;28;20080;-73
2022/08/12 10:47:31;;;;;;;4.28;2.60;;;25.80;60.70;;;;;;5015325;28;20093;-73
2022/08/12 10:49:58;;;;;;;3.55;2.60;;;25.90;60.70;;;;;;5014732;28;20080;-73
2022/08/12 10:52:24;;;;;;;4.30;2.90;;;25.90;60.70;;;;;;5014990;28;20106;-73
2022/08/12 10:54:50;;;;;;;5.50;2.80;;;25.90;60.80;;;;;;5013394;28;20045;-73
2022/08/12 10:57:16;;;;;;;3.15;2.53;;;25.90;60.80;;;;;;5014749;28;20444;-73
2022/08/12 10:59:42;;;;;;;3.58;2.88;;;25.90;60.70;;;;;;5013750;28;20026;-73
2022/08/12 11:02:09;;;;;;;3.58;2.60;;;25.90;60.70;;;;;;5014682;28;20024;-73
2022/08/12 11:04:37;;;;;;;4.53;2.75;;;25.90;60.70;;;;;;5013469;28;20468;-73
2022/08/12 11:07:03;;;;;;;4.95;2.80;;;25.80;60.70;;;;;;5013963;28;20400;-73
2022/08/12 11:09:30;;;;;;;3.70;2.25;;;25.90;60.80;;;;;;5013957;28;20473;-73
2022/08/12 11:11:56;;;;;;;3.97;2.67;;;25.90;60.70;;;;;;5013387;28;20029;-73
2022/08/12 11:14:27;;;;;;;3.10;2.30;;;25.90;60.80;;;;;;5013382;28;20026;-73
2022/08/12 11:17:13;;;;;;;5.93;3.05;;;25.90;60.70;;;;;;5013378;28;20026;-73
2022/08/12 11:19:40;;;;;;;3.20;2.20;;;25.90;60.80;;;;;;5013103;28;20034;-73
2022/08/12 11:22:06;;;;;;;4.85;2.63;;;25.90;60.70;;;;;;5013176;28;20022;-73
2022/08/12 11:24:32;;;;;;;4.03;2.67;;;25.90;60.70;;;;;;5014102;28;20481;-73
2022/08/12 11:26:58;;;;;;;3.53;2.53;;;25.90;60.70;;;;;;5012821;28;20045;-73
2022/08/12 11:29:25;;;;;;;3.33;2.55;;;25.90;60.70;;;;;;5017089;28;20049;-73
2022/08/12 11:31:51;;;;;;;4.47;2.40;;;25.90;60.60;;;;;;5032911;28;20019;-73
2022/08/12 11:34:17;;;;;;;4.47;2.40;;;25.90;60.70;;;;;;5032789;28;20108;-73
2022/08/12 11:36:53;;;;;;;4.18;2.30;;;25.90;60.60;;;;;;5032686;28;20022;-73
2022/08/12 11:39:19;;;;;;;2.60;2.10;;;25.90;60.60;;;;;;5012816;28;20137;-73
2022/08/12 11:41:45;;;;;;;4.50;2.40;;;25.90;60.60;;;;;;5012948;28;20097;-73
2022/08/12 11:44:10;;;;;;;3.85;2.42;;;25.90;61.70;;;;;;5013940;28;20034;-73
2022/08/12 11:46:36;;;;;;;3.67;2.47;;;25.90;60.60;;;;;;5012869;28;20417;-73
2022/08/12 11:49:03;;;;;;;4.65;2.42;;;25.90;60.60;;;;;;5012508;28;20087;-73
2022/08/12 11:51:29;;;;;;;4.20;2.35;;;25.90;60.60;;;;;;5012660;28;20084;-73
2022/08/12 11:53:54;;;;;;;2.90;2.22;;;25.90;60.60;;;;;;5012432;28;20051;-73
2022/08/12 11:56:20;;;;;;;3.80;2.45;;;25.90;60.60;;;;;;5013939;28;20044;-73
2022/08/12 11:58:47;;;;;;;3.58;2.28;;;25.90;60.60;;;;;;5013678;28;20029;-73
2022/08/12 12:01:13;;;;;;;3.38;2.35;;;25.90;60.60;;;;;;5013736;28;20097;-74
2022/08/12 12:03:38;;;;;;;2.75;1.90;;;25.90;60.50;;;;;;5013399;28;20148;-73
2022/08/12 12:06:04;;;;;;;4.30;2.22;;;25.90;60.50;;;;;;5013490;28;20030;-73
2022/08/12 12:08:30;;;;;;;2.90;2.33;;;25.90;60.50;;;;;;5013383;28;20025;-73
2022/08/12 12:10:56;;;;;;;4.13;2.10;;;25.90;60.50;;;;;;5013696;28;20048;-73
2022/08/12 12:13:21;;;;;;;2.88;2.10;;;25.90;60.50;;;;;;5013395;28;20037;-73
2022/08/12 12:15:47;;;;;;;3.00;2.17;;;25.90;60.50;;;;;;5013325;28;20021;-73
2022/08/12 12:18:25;;;;;;;2.97;2.45;;;25.90;60.50;;;;;;5013307;28;20033;-73
2022/08/12 12:20:52;;;;;;;3.03;1.98;;;25.90;60.50;;;;;;5012173;28;20031;-73
2022/08/12 12:23:18;;;;;;;4.07;2.63;;;25.90;60.50;;;;;;5011717;28;20117;-73
2022/08/12 12:25:43;;;;;;;3.97;2.00;;;25.90;60.50;;;;;;5012141;28;20556;-73
2022/08/12 12:28:09;;;;;;;4.05;2.10;;;25.90;60.40;;;;;;5013197;28;20030;-73
2022/08/12 12:30:35;;;;;;;3.42;2.20;;;25.90;60.50;;;;;;5026764;28;20044;-73
2022/08/12 12:33:00;;;;;;;3.22;2.03;;;25.90;60.40;;;;;;5031591;28;20083;-73
2022/08/12 12:35:26;;;;;;;1.98;1.77;;;26.00;60.50;;;;;;5031330;28;20059;-73
2022/08/12 12:37:58;;;;;;;3.05;2.35;;;25.90;60.50;;;;;;5025076;28;20117;-73
2022/08/12 12:40:24;;;;;;;4.38;2.22;;;26.00;60.50;;;;;;5013016;28;20029;-73
2022/08/12 12:42:50;;;;;;;2.30;1.90;;;25.90;60.30;;;;;;5011704;28;20056;-73
2022/08/12 12:45:16;;;;;;;3.15;2.03;;;25.90;60.40;;;;;;5012751;28;20068;-73
2022/08/12 12:48:04;;;;;;;3.55;2.10;;;26.00;60.40;;;;;;5012889;28;20030;-73
2022/08/12 12:50:33;;;;;;;2.97;1.90;;;25.90;60.40;;;;;;5012576;28;20018;-73
2022/08/12 12:52:59;;;;;;;2.97;2.17;;;25.90;60.40;;;;;;5011710;28;20496;-73
2022/08/12 12:55:25;;;;;;;2.88;2.15;;;26.00;60.40;;;;;;4995149;28;20056;-73
2022/08/12 12:57:51;;;;;;;1.88;1.52;;;25.90;60.30;;;;;;5011733;28;20477;-73
2022/08/12 13:00:17;;;;;;;1.98;1.80;;;26.00;60.40;;;;;;5011515;28;20033;-73
2022/08/12 13:02:51;;;;;;;2.25;1.95;;;26.00;60.30;;;;;;5011466;28;20084;-73
2022/08/12 13:05:35;;;;;;;2.10;1.85;;;26.00;60.30;;;;;;5010993;28;20080;-73
2022/08/12 13:08:02;;;;;;;1.90;1.80;;;26.00;60.30;;;;;;5011445;28;20057;-73
2022/08/12 13:10:31;;;;;;;2.45;1.80;;;26.00;60.30;;;;;;5011384;28;20072;-73
2022/08/12 13:12:57;;;;;;;2.88;2.00;;;26.00;60.30;;;;;;5011435;28;20030;-73
2022/08/12 13:15:22;;;;;;;2.38;2.13;;;26.00;60.30;;;;;;5012379;28;20041;-73
2022/08/12 13:17:50;;;;;;;1.83;1.73;;;26.00;60.30;;;;;;5012766;28;20057;-73
2022/08/12 13:20:19;;;;;;;2.53;2.00;;;26.00;60.30;;;;;;5011168;28;20025;-73
2022/08/12 13:22:45;;;;;;;2.80;1.75;;;26.00;60.30;;;;;;5011371;28;20038;-73
2022/08/12 13:25:14;;;;;;;1.90;1.73;;;26.00;60.30;;;;;;5011279;28;20443;-73
2022/08/12 13:27:46;;;;;;;2.75;1.83;;;26.00;60.30;;;;;;5011266;28;20050;-73
2022/08/12 13:30:14;;;;;;;2.08;1.60;;;26.00;60.20;;;;;;5021677;28;20073;-73
2022/08/12 13:32:45;;;;;;;2.80;2.00;;;26.00;60.20;;;;;;5035963;28;20033;-73
2022/08/12 13:35:12;;;;;;;2.83;1.70;;;26.00;60.20;;;;;;5034663;28;20021;-73
2022/08/12 13:37:39;;;;;;;1.60;1.50;;;26.00;60.30;;;;;;5029334;28;20080;-73
2022/08/12 13:40:07;;;;;;;2.03;1.50;;;26.00;60.20;;;;;;5015056;28;20435;-73
2022/08/12 13:42:33;;;;;;;2.80;1.90;;;26.00;60.20;;;;;;5016054;28;20075;-73
2022/08/12 13:44:59;;;;;;;3.40;2.10;;;26.00;60.20;;;;;;5015171;28;20494;-73
2022/08/12 13:47:24;;;;;;;3.55;1.88;;;26.00;60.20;;;;;;5016076;28;20030;-73
2022/08/12 13:49:50;;;;;;;2.10;1.90;;;26.00;60.20;;;;;;5016043;28;20400;-73
2022/08/12 13:52:17;;;;;;;1.98;1.77;;;26.00;60.10;;;;;;5016010;28;20060;-73
2022/08/12 13:54:45;;;;;;;1.90;1.73;;;26.00;60.20;;;;;;5016143;28;20511;-73
2022/08/12 13:57:13;;;;;;;2.00;1.80;;;26.10;60.20;;;;;;5014825;28;20100;-73
2022/08/12 13:59:40;;;;;;;2.13;1.70;;;26.10;60.20;;;;;;5015954;28;20160;-73
2022/08/12 14:02:09;;;;;;;2.15;1.80;;;26.10;60.20;;;;;;5014798;28;20036;-73
2022/08/12 14:04:35;;;;;;;1.92;1.42;;;26.10;60.10;;;;;;5014268;28;20028;-73
2022/08/12 14:07:04;;;;;;;2.55;1.90;;;26.10;60.10;;;;;;5014822;28;20022;-73
2022/08/12 14:09:30;;;;;;;2.80;2.00;;;26.10;60.10;;;;;;5015820;28;20025;-73
2022/08/12 14:11:56;;;;;;;1.55;1.45;;;26.10;60.10;;;;;;5014546;28;20506;-73
2022/08/12 14:14:21;;;;;;;1.48;1.38;;;26.20;60.20;;;;;;5015474;28;20523;-73
2022/08/12 14:16:47;;;;;;;1.90;1.60;;;26.20;60.20;;;;;;5015790;28;20112;-73
2022/08/12 14:19:13;;;;;;;3.08;1.70;;;26.10;60.10;;;;;;5015332;28;20096;-73
2022/08/12 14:21:38;;;;;;;4.60;2.17;;;26.20;60.10;;;;;;5015621;28;20022;-73
2022/08/12 14:24:07;;;;;;;2.03;1.75;;;26.20;60.10;;;;;;5015371;28;20488;-73
2022/08/12 14:26:32;;;;;;;1.80;1.58;;;26.20;60.10;;;;;;5015418;28;20026;-73
2022/08/12 14:28:58;;;;;;;2.08;1.85;;;26.20;60.10;;;;;;5016272;28;20105;-73
2022/08/12 14:31:24;;;;;;;2.15;1.35;;;26.20;60.10;;;;;;5033893;28;20072;-73
2022/08/12 14:33:51;;;;;;;1.65;1.55;;;26.20;60.10;;;;;;5033873;28;20536;-73